Time;durP1;ratioP1;P1;durP2;ratioP2;P2;SDS_P1;SDS_P2;PMS_P1;PMS_P2;Temp;Humidity;BMP_temperature;BMP_pressure;BME280_temperature;BME280_humidity;BME280_pressure;Samples;Min_cycle;Max_cycle;Signal;HPM_P1;HPM_P2
2021/03/06 00:00:49;;;;;;;27.30;13.07;;;;;;;7.52;45.79;94860.94;10280500;28;20532;-74
2021/03/06 00:05:49;;;;;;;32.83;13.40;;;;;;;7.51;46.62;94862.03;10297235;28;20544;-74
2021/03/06 00:10:51;;;;;;;33.45;13.50;;;;;;;7.56;46.49;94864.72;10322561;28;20089;-74
2021/03/06 00:15:52;;;;;;;28.73;13.85;;;;;;;7.59;47.03;94869.59;10322112;28;20026;-74
2021/03/06 00:20:53;;;;;;;33.95;14.02;;;;;;;7.68;47.51;94873.44;10321963;28;20033;-74
2021/03/06 00:25:53;;;;;;;26.83;15.30;;;;;;;7.73;48.16;94863.84;10322250;28;20565;-74
2021/03/06 00:30:53;;;;;;;26.37;12.30;;;;;;;7.72;49.54;94871.06;10320858;28;20018;-74
2021/03/06 00:35:54;;;;;;;25.23;12.93;;;;;;;7.87;49.47;94865.88;10319679;28;20369;-75
2021/03/06 00:40:54;;;;;;;20.83;10.37;;;;;;;7.97;49.14;94867.84;10320833;28;20047;-74
2021/03/06 00:45:55;;;;;;;22.92;11.05;;;;;;;7.97;49.28;94872.41;10321735;28;20080;-74
2021/03/06 00:50:55;;;;;;;27.83;11.97;;;;;;;7.98;48.74;94866.78;10321341;28;20027;-73
2021/03/06 00:55:56;;;;;;;18.63;10.43;;;;;;;8.05;48.45;94861.19;10321566;28;20751;-74
2021/03/06 01:00:57;;;;;;;23.10;10.83;;;;;;;8.10;48.36;94861.25;10329233;28;20912;-74
2021/03/06 01:05:59;;;;;;;26.52;10.00;;;;;;;7.98;47.92;94858.75;10328618;28;20022;-74
2021/03/06 01:10:59;;;;;;;20.95;9.45;;;;;;;7.96;48.48;94858.19;10329085;28;20373;-74
2021/03/06 01:15:59;;;;;;;22.52;10.13;;;;;;;7.91;51.93;94847.47;10328937;28;20034;-74
2021/03/06 01:21:00;;;;;;;25.52;10.93;;;;;;;7.74;55.74;94850.22;10326990;28;20027;-74
2021/03/06 01:26:01;;;;;;;22.40;11.32;;;;;;;7.60;58.44;94852.47;10319949;28;20085;-74
2021/03/06 01:31:01;;;;;;;25.80;12.32;;;;;;;7.60;62.26;94844.44;10287084;28;20019;-74
2021/03/06 01:36:01;;;;;;;26.38;12.18;;;;;;;7.52;62.90;94842.22;10287225;28;20030;-74
2021/03/06 01:41:02;;;;;;;21.65;11.75;;;;;;;7.60;65.09;94843.66;10288013;28;20046;-74
2021/03/06 01:46:02;;;;;;;19.90;11.40;;;;;;;7.72;65.01;94838.13;10287677;28;20030;-74
2021/03/06 01:51:03;;;;;;;24.45;11.93;;;;;;;7.82;64.31;94846.28;10287361;28;20093;-74
2021/03/06 01:56:04;;;;;;;22.63;11.98;;;;;;;7.86;65.98;94847.41;10287321;28;20089;-74
2021/03/06 02:01:04;;;;;;;25.88;12.35;;;;;;;7.94;66.18;94849.63;10287177;28;20031;-74
2021/03/06 02:06:05;;;;;;;23.90;12.38;;;;;;;7.96;64.34;94847.47;10287139;28;20059;-74
2021/03/06 02:11:06;;;;;;;22.90;12.98;;;;;;;7.92;66.45;94854.41;10286439;28;20019;-74
2021/03/06 02:16:14;;;;;;;24.10;12.63;;;;;;;7.94;69.03;94848.78;10286766;28;20117;-74
2021/03/06 02:21:52;;;;;;;23.20;13.85;;;;;;;7.91;70.64;94847.47;10299498;28;20093;-74
2021/03/06 02:27:11;;;;;;;30.25;13.75;;;;;;;7.79;70.29;94852.16;10301046;28;20441;-74
2021/03/06 02:32:19;;;;;;;22.38;12.30;;;;;;;7.76;69.11;94852.63;10285837;28;20431;-74
2021/03/06 02:37:24;;;;;;;25.53;14.20;;;;;;;7.73;71.00;94847.78;10285627;28;20093;-74
2021/03/06 02:42:28;;;;;;;23.83;13.45;;;;;;;7.72;71.42;94857.69;10285510;28;20090;-74
2021/03/06 02:47:28;;;;;;;32.42;12.85;;;;;;;7.60;72.44;94863.16;10285526;28;20093;-74
2021/03/06 02:52:29;;;;;;;25.33;13.32;;;;;;;7.60;74.35;94857.03;10285191;28;20074;-74
2021/03/06 02:57:36;;;;;;;19.90;12.02;;;;;;;7.45;75.00;94869.19;10285176;28;20031;-74
2021/03/06 03:02:39;;;;;;;20.17;12.23;;;;;;;7.43;77.08;94881.19;10285032;28;20061;-73
2021/03/06 03:07:57;;;;;;;19.95;11.85;;;;;;;7.39;78.69;94880.84;10284380;28;20525;-72
2021/03/06 03:13:08;;;;;;;17.63;11.43;;;;;;;6.94;81.28;94888.03;10284210;28;20030;-73
2021/03/06 03:18:17;;;;;;;20.13;11.52;;;;;;;6.88;82.72;94902.38;10284289;28;20110;-74
2021/03/06 03:23:41;;;;;;;22.70;12.98;;;;;;;6.92;83.56;94902.69;10283440;28;20038;-73
2021/03/06 03:28:48;;;;;;;23.42;13.13;;;;;;;6.90;83.50;94910.16;10283684;28;20034;-74
2021/03/06 03:33:49;;;;;;;25.23;13.40;;;;;;;6.79;84.65;94914.53;10283808;28;20033;-74
2021/03/06 03:38:50;;;;;;;25.58;13.90;;;;;;;6.82;83.71;94922.06;10283084;28;20730;-74
2021/03/06 03:43:52;;;;;;;32.28;13.85;;;;;;;6.77;83.81;94933.47;10283234;28;20038;-73
2021/03/06 03:48:54;;;;;;;25.08;11.90;;;;;;;6.69;83.66;94930.41;10281956;28;20031;-74
2021/03/06 03:53:55;;;;;;;29.30;13.10;;;;;;;6.67;83.17;94928.78;10282832;28;20812;-74
2021/03/06 03:58:55;;;;;;;35.80;12.63;;;;;;;6.52;84.64;94943.75;10282575;28;20026;-74
2021/03/06 04:03:56;;;;;;;33.40;14.20;;;;;;;6.54;84.31;94949.66;10281878;28;20026;-74
2021/03/06 04:08:56;;;;;;;27.17;12.18;;;;;;;6.54;85.48;94950.47;10280627;28;20034;-74
2021/03/06 04:13:57;;;;;;;26.70;12.60;;;;;;;6.57;88.64;94955.34;10281122;28;20034;-74
2021/03/06 04:18:57;;;;;;;25.63;14.95;;;;;;;6.51;91.69;94966.97;10281760;28;20290;-72
2021/03/06 04:23:57;;;;;;;29.07;15.07;;;;;;;6.53;93.90;94964.88;10282204;28;20093;-73
2021/03/06 04:28:58;;;;;;;28.00;13.25;;;;;;;6.60;95.86;94960.19;10281948;28;20027;-73
2021/03/06 04:33:58;;;;;;;33.67;13.32;;;;;;;6.70;95.77;94964.06;10281738;28;20023;-74
2021/03/06 04:38:58;;;;;;;26.70;13.60;;;;;;;6.84;95.73;94968.06;10281494;28;20054;-74
2021/03/06 04:43:59;;;;;;;34.37;13.93;;;;;;;6.89;96.44;94967.31;10279238;28;20031;-73
2021/03/06 04:49:02;;;;;;;25.83;13.70;;;;;;;6.94;97.47;94976.22;10280333;28;20033;-74
2021/03/06 04:54:03;;;;;;;24.17;13.73;;;;;;;7.04;98.55;94977.44;10280248;28;20030;-74
2021/03/06 04:59:03;;;;;;;24.35;14.30;;;;;;;7.03;99.89;94979.28;10280605;28;20027;-74
2021/03/06 05:04:04;;;;;;;26.23;14.02;;;;;;;7.11;99.54;94983.41;10281368;28;20085;-73
2021/03/06 05:09:05;;;;;;;32.10;15.40;;;;;;;6.92;100.00;94999.69;10281179;28;20019;-74
2021/03/06 05:14:05;;;;;;;31.25;16.83;;;;;;;6.63;100.00;95004.31;10280546;28;20026;-74
2021/03/06 05:19:05;;;;;;;32.10;16.90;;;;;;;6.54;100.00;95025.22;10280890;28;20027;-74
2021/03/06 05:24:07;;;;;;;34.35;18.20;;;;;;;6.58;100.00;95039.72;10280802;28;20027;-74
2021/03/06 05:29:07;;;;;;;35.00;19.42;;;;;;;6.76;100.00;95040.56;10280413;28;20068;-74
2021/03/06 05:34:08;;;;;;;37.73;19.60;;;;;;;6.33;100.00;95064.94;10280548;28;20030;-74
2021/03/06 05:39:08;;;;;;;42.37;21.97;;;;;;;6.47;100.00;95076.13;10280512;28;20309;-74
2021/03/06 05:44:10;;;;;;;40.33;20.73;;;;;;;6.16;100.00;95080.84;10283393;28;20281;-74
2021/03/06 05:49:14;;;;;;;48.08;23.20;;;;;;;5.78;100.00;95100.06;10287516;28;20019;-75
2021/03/06 05:54:15;;;;;;;56.70;26.85;;;;;;;5.44;100.00;95111.31;10287775;28;20039;-75
2021/03/06 05:59:17;;;;;;;60.60;27.42;;;;;;;5.11;100.00;95123.31;10287087;28;20053;-75
2021/03/06 06:04:17;;;;;;;62.80;30.77;;;;;;;5.11;100.00;95144.63;10287253;28;20022;-75
2021/03/06 06:09:18;;;;;;;65.18;28.75;;;;;;;5.03;100.00;95141.50;10286924;28;20867;-75
2021/03/06 06:14:19;;;;;;;45.75;24.80;;;;;;;5.33;100.00;95159.28;10286370;28;20030;-75
2021/03/06 06:19:19;;;;;;;44.42;21.35;;;;;;;5.33;100.00;95169.94;10286372;28;20110;-75
2021/03/06 06:24:22;;;;;;;36.92;18.33;;;;;;;5.24;100.00;95199.56;10286331;28;20033;-75
2021/03/06 06:29:45;;;;;;;24.73;12.98;;;;;;;5.13;100.00;95209.19;10307148;28;20018;-75
2021/03/06 06:34:58;;;;;;;20.65;11.40;;;;;;;4.50;100.00;95230.88;10324671;28;20101;-75
2021/03/06 06:40:00;;;;;;;20.75;12.07;;;;;;;3.56;100.00;95239.75;10312063;28;20042;-74
2021/03/06 06:45:03;;;;;;;25.05;13.30;;;;;;;3.38;100.00;95264.41;10323750;28;20064;-73
2021/03/06 06:50:05;;;;;;;19.95;12.52;;;;;;;3.49;100.00;95279.66;10324248;28;20077;-72
2021/03/06 06:55:08;;;;;;;23.80;11.38;;;;;;;3.77;100.00;95283.75;10316787;28;20037;-72
2021/03/06 07:00:09;;;;;;;17.70;10.02;;;;;;;3.75;100.00;95297.25;10283638;28;20118;-73
2021/03/06 07:05:10;;;;;;;16.63;10.60;;;;;;;3.78;100.00;95296.00;10310724;28;20096;-73
2021/03/06 07:10:13;;;;;;;15.32;9.30;;;;;;;3.77;100.00;95297.03;10323729;28;20408;-72
2021/03/06 07:15:17;;;;;;;13.50;7.63;;;;;;;3.64;100.00;95297.94;10322617;28;20030;-73
2021/03/06 07:20:24;;;;;;;16.50;8.73;;;;;;;3.50;100.00;95315.84;10282903;28;20038;-74
2021/03/06 07:25:26;;;;;;;13.73;8.77;;;;;;;3.51;100.00;95328.06;10323369;28;20038;-74
2021/03/06 07:30:26;;;;;;;14.52;8.80;;;;;;;3.45;100.00;95344.88;10324528;28;20497;-74
2021/03/06 07:35:27;;;;;;;12.68;7.70;;;;;;;3.22;100.00;95348.06;10317490;28;20141;-73
2021/03/06 07:40:30;;;;;;;10.57;6.47;;;;;;;3.03;100.00;95363.88;10302393;28;20555;-74
2021/03/06 07:45:31;;;;;;;12.40;7.18;;;;;;;2.80;100.00;95376.81;10324410;28;20022;-73
2021/03/06 07:50:33;;;;;;;10.70;6.40;;;;;;;2.65;100.00;95385.00;10323615;28;20030;-73
2021/03/06 07:55:35;;;;;;;20.75;7.63;;;;;;;2.65;100.00;95379.69;10324388;28;20105;-73
2021/03/06 08:00:55;;;;;;;10.73;6.05;;;;;;;2.85;100.00;95391.09;10323817;28;20038;-73
2021/03/06 08:06:00;;;;;;;10.98;6.07;;;;;;;2.80;100.00;95393.53;10322137;28;20065;-73
2021/03/06 08:11:20;;;;;;;13.50;6.38;;;;;;;2.80;100.00;95403.34;10333276;28;20030;-73
2021/03/06 08:16:23;;;;;;;9.45;5.78;;;;;;;2.78;100.00;95403.56;10321538;28;20041;-73
2021/03/06 08:21:31;;;;;;;10.07;5.18;;;;;;;3.10;100.00;95401.03;10317288;28;20529;-73
2021/03/06 08:26:32;;;;;;;12.48;4.70;;;;;;;3.17;100.00;95424.94;10282601;28;20026;-73
2021/03/06 08:31:37;;;;;;;9.93;5.40;;;;;;;3.25;100.00;95406.91;10282603;28;20031;-73
2021/03/06 08:36:38;;;;;;;8.95;5.43;;;;;;;3.32;100.00;95419.34;10282584;28;20034;-73
2021/03/06 08:41:38;;;;;;;6.87;4.40;;;;;;;3.35;100.00;95432.19;10282335;28;20112;-72
2021/03/06 08:46:40;;;;;;;10.00;6.83;;;;;;;3.24;100.00;95442.47;10282376;28;20278;-72
2021/03/06 08:51:40;;;;;;;14.43;5.97;;;;;;;3.15;100.00;95450.88;10301606;28;20405;-72
2021/03/06 08:56:41;;;;;;;9.88;5.35;;;;;;;3.18;100.00;95463.72;10321471;28;20028;-73
2021/03/06 09:01:43;;;;;;;10.00;4.75;;;;;;;2.98;100.00;95469.09;10321570;28;20034;-73
2021/03/06 09:06:43;;;;;;;7.93;4.32;;;;;;;2.91;100.00;95479.72;10322960;28;20034;-73
2021/03/06 09:11:59;;;;;;;6.83;4.30;;;;;;;2.64;100.00;95484.25;10321684;28;20041;-73
2021/03/06 09:16:59;;;;;;;6.68;3.92;;;;;;;2.79;100.00;95495.47;10320128;28;20014;-73
2021/03/06 09:22:04;;;;;;;8.45;5.03;;;;;;;2.80;100.00;95499.72;10329697;28;20030;-73
2021/03/06 09:27:05;;;;;;;6.22;4.30;;;;;;;2.82;100.00;95499.53;10316111;28;20023;-73
2021/03/06 09:32:06;;;;;;;9.20;6.20;;;;;;;2.71;100.00;95504.44;10292160;28;20026;-73
2021/03/06 09:37:17;;;;;;;13.75;8.35;;;;;;;2.69;100.00;95505.66;10329905;28;20536;-73
2021/03/06 09:42:23;;;;;;;8.93;5.85;;;;;;;2.75;100.00;95512.81;10328687;28;20133;-72
2021/03/06 09:47:24;;;;;;;9.57;5.60;;;;;;;2.65;100.00;95510.56;10328362;28;20026;-74
2021/03/06 09:52:32;;;;;;;7.05;5.13;;;;;;;2.48;100.00;95518.09;10327295;28;20027;-72
2021/03/06 09:57:32;;;;;;;8.38;4.95;;;;;;;2.67;100.00;95521.78;10328132;28;20058;-73
2021/03/06 10:02:33;;;;;;;13.60;5.67;;;;;;;2.65;100.00;95534.47;10328253;28;20525;-72
2021/03/06 10:07:33;;;;;;;8.93;6.50;;;;;;;2.68;100.00;95539.34;10328042;28;20026;-72
2021/03/06 10:12:34;;;;;;;8.25;5.43;;;;;;;2.88;100.00;95538.53;10327119;28;20701;-72
2021/03/06 10:17:34;;;;;;;10.07;5.38;;;;;;;3.09;100.00;95542.81;10327227;28;20026;-72
2021/03/06 10:22:48;;;;;;;8.70;5.30;;;;;;;3.04;100.00;95553.22;10328054;28;20088;-72
2021/03/06 10:27:48;;;;;;;9.05;5.47;;;;;;;2.53;100.00;95552.81;10327044;28;20041;-72
2021/03/06 10:32:53;;;;;;;9.63;6.53;;;;;;;2.63;100.00;95551.59;10327067;28;20023;-72
2021/03/06 10:37:54;;;;;;;9.63;6.22;;;;;;;2.65;100.00;95558.34;10326326;28;21269;-72
2021/03/06 10:42:55;;;;;;;15.88;8.05;;;;;;;2.89;100.00;95548.94;10347358;28;20169;-72
2021/03/06 10:48:03;;;;;;;12.40;6.95;;;;;;;2.74;100.00;95549.16;10366052;28;20025;-73
2021/03/06 10:53:17;;;;;;;17.10;9.33;;;;;;;2.63;100.00;95538.31;10365392;28;20034;-72
2021/03/06 10:58:18;;;;;;;12.68;7.72;;;;;;;2.51;100.00;95554.03;10366570;28;20117;-72
2021/03/06 11:03:18;;;;;;;11.00;7.75;;;;;;;2.37;100.00;95545.22;10346825;28;20038;-72
2021/03/06 11:08:20;;;;;;;14.65;8.32;;;;;;;2.62;100.00;95539.34;10297299;28;20035;-73
2021/03/06 11:13:21;;;;;;;16.05;8.88;;;;;;;3.06;100.00;95538.72;10285098;28;20018;-72
2021/03/06 11:18:21;;;;;;;21.13;9.18;;;;;;;3.30;100.00;95543.59;10304818;28;20034;-72
2021/03/06 11:23:22;;;;;;;15.05;7.30;;;;;;;3.28;100.00;95535.00;10313956;28;20557;-72
2021/03/06 11:28:22;;;;;;;16.50;8.80;;;;;;;3.44;100.00;95541.75;10284658;28;20037;-72
2021/03/06 11:33:23;;;;;;;15.97;7.93;;;;;;;3.51;100.00;95527.38;10306684;28;21101;-72
2021/03/06 11:38:23;;;;;;;18.75;10.10;;;;;;;3.71;100.00;95513.22;10323880;28;20305;-72
2021/03/06 11:43:24;;;;;;;19.42;9.50;;;;;;;3.96;100.00;95515.16;10323743;28;20050;-72
2021/03/06 11:48:24;;;;;;;19.45;10.45;;;;;;;4.00;100.00;95508.41;10322783;28;20038;-72
2021/03/06 11:53:25;;;;;;;13.43;8.70;;;;;;;4.06;100.00;95507.53;10283398;28;20054;-72
2021/03/06 11:58:25;;;;;;;16.88;9.57;;;;;;;4.11;100.00;95508.53;10284917;28;20115;-72
2021/03/06 12:03:26;;;;;;;14.20;8.40;;;;;;;4.28;100.00;95511.53;10321648;28;20061;-72
2021/03/06 12:08:26;;;;;;;13.93;9.07;;;;;;;4.32;100.00;95506.56;10322334;28;20281;-72
2021/03/06 12:13:27;;;;;;;16.80;8.52;;;;;;;4.64;100.00;95500.44;10322559;28;20070;-72
2021/03/06 12:18:27;;;;;;;15.43;8.63;;;;;;;5.16;100.00;95485.00;10321328;28;20041;-73
2021/03/06 12:23:27;;;;;;;16.50;9.02;;;;;;;5.51;100.00;95488.94;10282688;28;20034;-72
2021/03/06 12:28:28;;;;;;;13.67;7.60;;;;;;;5.68;100.00;95481.16;10310147;28;20026;-74
2021/03/06 12:33:28;;;;;;;11.90;8.63;;;;;;;6.21;98.31;95477.00;10322900;28;20284;-73
2021/03/06 12:38:28;;;;;;;13.27;7.03;;;;;;;6.04;88.83;95463.50;10321957;28;20433;-73
2021/03/06 12:43:29;;;;;;;19.57;7.33;;;;;;;6.24;93.49;95474.72;10341791;28;20117;-73
2021/03/06 12:48:29;;;;;;;16.23;6.40;;;;;;;6.14;77.35;95467.25;10321423;28;20046;-73
2021/03/06 12:53:30;;;;;;;18.92;7.55;;;;;;;6.27;79.41;95462.78;10325512;28;20281;-73
2021/03/06 12:58:30;;;;;;;13.83;6.40;;;;;;;6.09;79.90;95471.66;10330197;28;20487;-73
2021/03/06 13:03:30;;;;;;;20.43;8.20;;;;;;;5.85;78.11;95468.00;10316353;28;20462;-73
2021/03/06 13:08:31;;;;;;;16.00;6.82;;;;;;;5.62;79.09;95470.38;10328653;28;20281;-73
2021/03/06 13:13:31;;;;;;;12.97;6.13;;;;;;;5.68;66.01;95470.50;10329240;28;20040;-73
2021/03/06 13:18:32;;;;;;;9.57;5.80;;;;;;;5.52;67.70;95474.59;10329516;28;20743;-73
2021/03/06 13:23:33;;;;;;;9.73;5.45;;;;;;;5.51;71.97;95471.09;10329621;28;20343;-74
2021/03/06 13:28:34;;;;;;;10.35;7.15;;;;;;;5.98;63.43;95470.56;10329470;28;20030;-73
2021/03/06 13:33:34;;;;;;;18.25;6.43;;;;;;;6.15;67.97;95479.56;10329096;28;20030;-73
2021/03/06 13:38:34;;;;;;;9.25;6.35;;;;;;;6.02;57.76;95487.75;10328748;28;20038;-73
2021/03/06 13:43:35;;;;;;;21.80;7.20;;;;;;;6.32;58.31;95495.75;10328584;28;20197;-73
2021/03/06 13:48:36;;;;;;;12.43;6.93;;;;;;;6.49;53.03;95493.25;10328262;28;20026;-74
2021/03/06 13:53:36;;;;;;;11.85;7.03;;;;;;;6.66;57.13;95496.06;10328631;28;20026;-74
2021/03/06 13:58:37;;;;;;;14.57;6.40;;;;;;;6.28;52.21;95499.09;10328208;28;20113;-73
2021/03/06 14:03:37;;;;;;;11.03;7.27;;;;;;;5.05;52.49;95507.03;10315038;28;20146;-73
2021/03/06 14:08:38;;;;;;;13.10;7.47;;;;;;;5.04;54.56;95510.75;10327481;28;20842;-73
2021/03/06 14:13:38;;;;;;;19.33;10.55;;;;;;;5.35;56.01;95507.16;10327670;28;20265;-74
2021/03/06 14:18:38;;;;;;;18.27;9.17;;;;;;;5.21;54.54;95516.34;10326120;28;20026;-76
2021/03/06 14:23:39;;;;;;;16.33;8.68;;;;;;;5.28;56.73;95528.53;10306845;28;20331;-75
2021/03/06 14:28:39;;;;;;;11.80;7.57;;;;;;;5.45;54.91;95509.31;10301089;28;20029;-75
2021/03/06 14:33:40;;;;;;;16.57;8.23;;;;;;;4.53;54.40;95524.03;10308235;28;20470;-75
2021/03/06 14:38:40;;;;;;;10.95;7.55;;;;;;;4.85;56.08;95517.88;10303646;28;20427;-75
2021/03/06 14:43:41;;;;;;;10.30;7.20;;;;;;;4.77;56.24;95529.59;10321773;28;20034;-75
2021/03/06 14:48:41;;;;;;;13.70;7.40;;;;;;;4.95;54.44;95524.34;10326985;28;20316;-75
2021/03/06 14:53:41;;;;;;;14.73;7.63;;;;;;;4.94;52.96;95529.91;10326133;28;20033;-74
2021/03/06 14:58:42;;;;;;;10.33;6.27;;;;;;;4.34;52.01;95533.78;10325615;28;20297;-73
2021/03/06 15:03:43;;;;;;;12.87;7.33;;;;;;;4.10;54.22;95541.50;10326157;28;20364;-73
2021/03/06 15:08:43;;;;;;;13.98;6.88;;;;;;;4.13;54.80;95544.75;10321354;28;20426;-73
2021/03/06 15:13:43;;;;;;;12.40;6.82;;;;;;;4.34;52.52;95536.47;10325030;28;20022;-73
2021/03/06 15:18:44;;;;;;;13.50;7.13;;;;;;;3.91;53.54;95545.88;10304645;28;20454;-73
2021/03/06 15:23:45;;;;;;;9.63;6.57;;;;;;;3.57;54.23;95566.44;10284404;28;20454;-73
2021/03/06 15:28:45;;;;;;;9.27;6.13;;;;;;;3.63;56.49;95561.28;10320812;28;20058;-73
2021/03/06 15:33:45;;;;;;;12.15;6.85;;;;;;;3.70;55.18;95559.47;10313570;28;20286;-73
2021/03/06 15:38:46;;;;;;;10.13;7.20;;;;;;;3.36;58.45;95561.38;10316482;28;20046;-74
2021/03/06 15:43:46;;;;;;;9.93;6.13;;;;;;;2.94;57.96;95566.09;10323107;28;20300;-74
2021/03/06 15:48:47;;;;;;;10.00;6.63;;;;;;;3.17;58.26;95571.00;10356187;28;20521;-73
2021/03/06 15:53:47;;;;;;;13.73;7.18;;;;;;;3.04;58.22;95574.47;10355722;28;20085;-74
2021/03/06 15:58:47;;;;;;;10.00;7.07;;;;;;;3.09;55.82;95585.31;10323202;28;20062;-73
2021/03/06 16:03:48;;;;;;;12.60;7.37;;;;;;;3.05;57.25;95589.38;10323328;28;20274;-72
2021/03/06 16:08:48;;;;;;;11.30;7.13;;;;;;;2.97;56.96;95608.19;10323955;28;20381;-71
2021/03/06 16:13:49;;;;;;;12.15;6.82;;;;;;;2.68;57.20;95611.00;10322318;28;20651;-72
2021/03/06 16:18:49;;;;;;;11.20;6.30;;;;;;;2.70;57.56;95616.13;10322618;28;20030;-72
2021/03/06 16:23:49;;;;;;;12.15;7.28;;;;;;;2.50;62.87;95618.75;10322775;28;20281;-72
2021/03/06 16:28:50;;;;;;;13.00;6.77;;;;;;;2.54;62.27;95631.41;10281837;28;20095;-73
2021/03/06 16:33:50;;;;;;;15.38;7.72;;;;;;;2.48;59.25;95642.78;10317822;28;20030;-73
2021/03/06 16:38:57;;;;;;;14.23;8.17;;;;;;;2.53;58.27;95637.72;10322863;28;20034;-73
2021/03/06 16:44:04;;;;;;;16.42;8.40;;;;;;;2.45;62.49;95650.34;10352634;28;20301;-74
2021/03/06 16:49:05;;;;;;;13.38;6.63;;;;;;;2.27;57.91;95648.25;10317229;28;20034;-73
2021/03/06 16:54:06;;;;;;;15.48;7.45;;;;;;;2.00;60.08;95661.38;10318367;28;20041;-73
2021/03/06 16:59:06;;;;;;;13.73;7.80;;;;;;;1.87;63.47;95675.38;10322183;28;20034;-73
2021/03/06 17:04:06;;;;;;;14.67;8.10;;;;;;;1.78;65.14;95684.50;10322039;28;20464;-74
2021/03/06 17:09:07;;;;;;;11.43;7.30;;;;;;;1.70;62.76;95690.75;10322059;28;20470;-74
2021/03/06 17:14:07;;;;;;;13.43;8.20;;;;;;;1.59;62.64;95689.47;10321357;28;20708;-74
2021/03/06 17:19:09;;;;;;;12.18;7.78;;;;;;;1.51;63.53;95697.56;10321048;28;20356;-73
2021/03/06 17:24:09;;;;;;;11.27;7.30;;;;;;;1.67;62.50;95705.22;10306726;28;20862;-73
2021/03/06 17:29:10;;;;;;;13.77;7.83;;;;;;;1.42;61.53;95718.06;10281560;28;20109;-73
2021/03/06 17:34:10;;;;;;;12.65;8.48;;;;;;;1.32;61.70;95717.59;10302332;28;20270;-73
2021/03/06 17:39:11;;;;;;;13.07;8.48;;;;;;;1.29;63.37;95723.28;10322478;28;20192;-74
2021/03/06 17:44:12;;;;;;;16.92;9.88;;;;;;;1.30;63.97;95732.84;10329291;28;20038;-74
2021/03/06 17:49:12;;;;;;;11.63;8.00;;;;;;;1.49;68.07;95734.84;10316140;28;20034;-74
2021/03/06 17:54:14;;;;;;;10.82;7.57;;;;;;;1.33;63.55;95727.97;10312798;28;20767;-74
2021/03/06 17:59:14;;;;;;;10.88;7.65;;;;;;;1.27;63.05;95738.50;10303432;28;20117;-74
2021/03/06 18:04:16;;;;;;;15.52;8.32;;;;;;;1.37;63.27;95736.38;10305141;28;20030;-75
2021/03/06 18:09:16;;;;;;;15.05;8.88;;;;;;;1.12;64.66;95742.06;10308402;28;20113;-75
2021/03/06 18:14:16;;;;;;;18.55;8.32;;;;;;;1.25;67.93;95751.94;10302888;28;20031;-72
2021/03/06 18:19:18;;;;;;;16.15;8.80;;;;;;;1.18;64.24;95770.41;10313765;28;20500;-73
2021/03/06 18:24:18;;;;;;;12.30;7.82;;;;;;;1.07;64.23;95770.91;10319201;28;20044;-73
2021/03/06 18:29:19;;;;;;;13.07;8.52;;;;;;;1.06;63.01;95784.34;10311267;28;20014;-73
2021/03/06 18:34:19;;;;;;;14.25;8.13;;;;;;;1.24;63.98;95776.78;10326311;28;20114;-73
2021/03/06 18:39:20;;;;;;;13.80;8.68;;;;;;;0.94;62.26;95781.38;10327024;28;20793;-73
2021/03/06 18:44:21;;;;;;;14.10;8.80;;;;;;;1.06;62.72;95781.69;10325099;28;20042;-74
2021/03/06 18:49:21;;;;;;;18.95;10.00;;;;;;;0.96;64.29;95785.47;10286397;28;20470;-74
2021/03/06 18:54:22;;;;;;;14.13;9.20;;;;;;;1.19;65.18;95784.50;10286060;28;20478;-74
2021/03/06 18:59:22;;;;;;;18.07;9.60;;;;;;;1.31;66.56;95779.50;10313366;28;20482;-74
2021/03/06 19:04:23;;;;;;;14.95;9.20;;;;;;;0.92;62.49;95793.97;10325906;28;20660;-74
2021/03/06 19:09:23;;;;;;;15.73;9.73;;;;;;;0.67;63.31;95792.47;10298599;28;20049;-74
2021/03/06 19:14:24;;;;;;;13.38;8.63;;;;;;;0.60;64.52;95796.00;10322529;28;20105;-74
2021/03/06 19:19:24;;;;;;;16.58;8.27;;;;;;;0.71;62.83;95797.38;10307442;28;20398;-74
2021/03/06 19:24:25;;;;;;;16.85;7.00;;;;;;;0.52;61.58;95810.19;10300962;28;20074;-74
2021/03/06 19:29:25;;;;;;;11.80;7.50;;;;;;;0.48;63.51;95808.91;10304175;28;20033;-74
2021/03/06 19:34:26;;;;;;;11.63;7.15;;;;;;;0.38;64.25;95810.97;10317830;28;20030;-72
2021/03/06 19:39:26;;;;;;;15.67;7.77;;;;;;;0.38;61.31;95811.81;10324164;28;20046;-73
2021/03/06 19:44:27;;;;;;;12.85;8.90;;;;;;;0.46;62.59;95826.75;10324287;28;20313;-73
2021/03/06 19:49:28;;;;;;;13.43;7.97;;;;;;;0.44;62.68;95829.59;10360255;28;20417;-74
2021/03/06 19:54:28;;;;;;;12.20;8.68;;;;;;;0.32;62.11;95826.59;10363457;28;20068;-73
2021/03/06 19:59:29;;;;;;;13.93;7.78;;;;;;;0.42;61.20;95830.78;10355740;28;20759;-75
2021/03/06 20:04:29;;;;;;;11.60;7.43;;;;;;;0.10;61.63;95838.88;10282790;28;20510;-74
2021/03/06 20:09:29;;;;;;;14.15;7.25;;;;;;;0.22;60.11;95843.72;10283094;28;20023;-76
2021/03/06 20:14:39;;;;;;;16.55;6.97;;;;;;;0.16;61.21;95843.44;10283731;28;20034;-74
2021/03/06 20:19:41;;;;;;;15.65;7.85;;;;;;;0.22;59.28;95849.00;10316945;28;20038;-74
2021/03/06 20:24:42;;;;;;;11.02;7.13;;;;;;;0.25;59.17;95841.53;10283167;28;20804;-78
2021/03/06 20:29:42;;;;;;;13.70;7.00;;;;;;;0.39;57.56;95836.44;10283657;28;20035;-78
2021/03/06 20:34:44;;;;;;;12.55;8.13;;;;;;;0.02;57.79;95849.53;10283502;28;20030;-78
2021/03/06 20:39:44;;;;;;;9.55;7.68;;;;;;;0.09;58.53;95847.00;10283672;28;20053;-78
2021/03/06 20:44:45;;;;;;;11.77;7.63;;;;;;;0.01;58.95;95847.06;10356360;28;20034;-78
2021/03/06 20:49:45;;;;;;;11.30;7.13;;;;;;;-0.20;58.25;95849.38;10364023;28;20030;-77
2021/03/06 20:54:46;;;;;;;11.67;7.50;;;;;;;-0.14;59.83;95847.84;10330644;28;20105;-78
2021/03/06 20:59:46;;;;;;;10.80;7.93;;;;;;;-0.26;57.48;95852.72;10320996;28;20668;-78
2021/03/06 21:04:47;;;;;;;14.38;7.90;;;;;;;-0.28;56.65;95846.81;10316418;28;20453;-78
2021/03/06 21:09:47;;;;;;;14.57;8.70;;;;;;;-0.43;58.98;95844.13;10322192;28;20121;-77
2021/03/06 21:14:50;;;;;;;14.57;7.93;;;;;;;-0.47;56.88;95853.38;10324592;28;20042;-77
2021/03/06 21:19:51;;;;;;;11.40;7.63;;;;;;;-0.48;58.15;95850.94;10331077;28;20030;-78
2021/03/06 21:24:51;;;;;;;12.53;8.87;;;;;;;-0.53;56.61;95848.78;10330824;28;20030;-77
2021/03/06 21:29:52;;;;;;;12.50;9.75;;;;;;;-0.53;56.90;95851.44;10329269;28;20688;-77
2021/03/06 21:34:52;;;;;;;15.55;8.73;;;;;;;-0.53;56.17;95854.91;10329888;28;20031;-78
2021/03/06 21:39:52;;;;;;;10.50;8.13;;;;;;;-0.47;56.64;95852.56;10331426;28;20413;-77
2021/03/06 21:44:53;;;;;;;15.97;8.67;;;;;;;-0.57;56.63;95850.97;10328609;28;20327;-77
2021/03/06 21:49:53;;;;;;;15.07;9.50;;;;;;;-0.59;56.88;95855.59;10311541;28;20348;-77
2021/03/06 21:54:53;;;;;;;14.70;9.73;;;;;;;-0.62;57.14;95853.31;10287913;28;20361;-76
2021/03/06 21:59:54;;;;;;;10.97;8.63;;;;;;;-0.59;56.18;95844.22;10287812;28;20356;-76
2021/03/06 22:04:58;;;;;;;18.40;8.57;;;;;;;-0.67;56.99;95847.75;10287168;28;20281;-77
2021/03/06 22:09:59;;;;;;;13.13;7.38;;;;;;;-0.61;56.98;95849.69;10287474;28;20685;-77
2021/03/06 22:14:59;;;;;;;14.02;8.85;;;;;;;-0.68;57.26;95846.09;10286716;28;20042;-76
2021/03/06 22:20:00;;;;;;;11.90;6.95;;;;;;;-0.47;56.86;95853.38;10287043;28;20085;-77
2021/03/06 22:25:00;;;;;;;14.38;9.70;;;;;;;-0.41;55.27;95841.28;10286193;28;20118;-77
2021/03/06 22:30:00;;;;;;;14.30;8.38;;;;;;;-0.60;57.64;95837.28;10286405;28;20438;-76
2021/03/06 22:35:01;;;;;;;12.90;8.63;;;;;;;-0.52;54.77;95846.00;10285949;28;20080;-76
2021/03/06 22:40:02;;;;;;;13.20;7.95;;;;;;;-0.45;56.54;95838.19;10286753;28;20050;-77
2021/03/06 22:45:03;;;;;;;8.75;7.07;;;;;;;-0.61;54.87;95846.25;10284918;28;20054;-77
2021/03/06 22:50:09;;;;;;;16.60;7.70;;;;;;;-0.48;55.42;95848.28;10285516;28;20101;-77
2021/03/06 22:55:11;;;;;;;14.68;9.85;;;;;;;-0.33;57.14;95848.34;10286004;28;20359;-77
2021/03/06 23:00:23;;;;;;;11.32;6.72;;;;;;;-0.19;55.36;95848.38;10285048;28;20038;-77
2021/03/06 23:05:24;;;;;;;14.10;9.52;;;;;;;-0.22;58.01;95856.66;10284839;28;20043;-77
2021/03/06 23:10:25;;;;;;;12.30;7.07;;;;;;;-0.40;56.77;95858.78;10284784;28;20023;-76